sensor_id;sensor_type;location;lat;lon;timestamp;pressure;altitude;pressure_sealevel;temperature;humidity
66742;BME280;53654;54.152;19.432;2023-04-01T00:01:12;99659.38;;;8.38;88.86
66742;BME280;53654;54.152;19.432;2023-04-01T00:03:44;99657.02;;;8.33;89.10
66742;BME280;53654;54.152;19.432;2023-04-01T00:06:15;99655.63;;;8.32;89.30
66742;BME280;53654;54.152;19.432;2023-04-01T00:08:44;99655.48;;;8.31;89.30
66742;BME280;53654;54.152;19.432;2023-04-01T00:11:13;99654.26;;;8.31;89.41
66742;BME280;53654;54.152;19.432;2023-04-01T00:13:41;99652.34;;;8.31;89.32
66742;BME280;53654;54.152;19.432;2023-04-01T00:16:09;99651.67;;;8.30;89.20
66742;BME280;53654;54.152;19.432;2023-04-01T00:18:50;99644.42;;;8.27;89.32
66742;BME280;53654;54.152;19.432;2023-04-01T00:21:19;99640.38;;;8.30;89.46
66742;BME280;53654;54.152;19.432;2023-04-01T00:23:49;99640.02;;;8.31;89.19
66742;BME280;53654;54.152;19.432;2023-04-01T00:26:19;99636.71;;;8.31;89.16
66742;BME280;53654;54.152;19.432;2023-04-01T00:28:50;99635.31;;;8.33;89.27
66742;BME280;53654;54.152;19.432;2023-04-01T00:31:19;99634.43;;;8.32;89.05
66742;BME280;53654;54.152;19.432;2023-04-01T00:33:48;99634.61;;;8.34;89.05
66742;BME280;53654;54.152;19.432;2023-04-01T00:36:18;99634.08;;;8.34;88.76
66742;BME280;53654;54.152;19.432;2023-04-01T00:38:47;99639.30;;;8.34;88.62
66742;BME280;53654;54.152;19.432;2023-04-01T00:41:16;99641.23;;;8.32;88.50
66742;BME280;53654;54.152;19.432;2023-04-01T00:43:47;99641.05;;;8.30;88.35
66742;BME280;53654;54.152;19.432;2023-04-01T00:46:16;99640.42;;;8.27;88.11
66742;BME280;53654;54.152;19.432;2023-04-01T00:48:51;99640.30;;;8.25;88.18
66742;BME280;53654;54.152;19.432;2023-04-01T00:51:22;99640.00;;;8.21;88.24
66742;BME280;53654;54.152;19.432;2023-04-01T00:53:54;99644.75;;;8.17;88.33
66742;BME280;53654;54.152;19.432;2023-04-01T00:56:35;99644.48;;;8.13;88.36
66742;BME280;53654;54.152;19.432;2023-04-01T00:59:08;99643.18;;;8.07;88.35
66742;BME280;53654;54.152;19.432;2023-04-01T01:01:39;99646.15;;;8.06;88.50
66742;BME280;53654;54.152;19.432;2023-04-01T01:04:24;99646.48;;;8.07;88.39
66742;BME280;53654;54.152;19.432;2023-04-01T01:12:34;99641.58;;;7.87;87.99
66742;BME280;53654;54.152;19.432;2023-04-01T01:16:43;99643.39;;;7.83;88.01
66742;BME280;53654;54.152;19.432;2023-04-01T01:37:53;99641.69;;;7.80;88.12
66742;BME280;53654;54.152;19.432;2023-04-01T01:40:24;99644.75;;;7.84;88.13
66742;BME280;53654;54.152;19.432;2023-04-01T01:42:58;99642.09;;;7.88;87.78
66742;BME280;53654;54.152;19.432;2023-04-01T01:45:28;99640.86;;;7.88;87.59
66742;BME280;53654;54.152;19.432;2023-04-01T01:48:02;99642.09;;;7.88;87.38
66742;BME280;53654;54.152;19.432;2023-04-01T01:50:33;99640.77;;;7.84;87.05
66742;BME280;53654;54.152;19.432;2023-04-01T01:53:07;99638.33;;;7.84;87.43
66742;BME280;53654;54.152;19.432;2023-04-01T01:55:39;99637.95;;;7.86;87.05
66742;BME280;53654;54.152;19.432;2023-04-01T01:58:32;99641.09;;;7.85;86.83
66742;BME280;53654;54.152;19.432;2023-04-01T02:01:01;99634.38;;;7.81;86.73
66742;BME280;53654;54.152;19.432;2023-04-01T02:03:34;99639.98;;;7.79;86.78
66742;BME280;53654;54.152;19.432;2023-04-01T02:06:08;99640.99;;;7.80;86.78
66742;BME280;53654;54.152;19.432;2023-04-01T02:08:47;99642.91;;;7.80;86.74
66742;BME280;53654;54.152;19.432;2023-04-01T02:11:28;99642.39;;;7.79;86.53
66742;BME280;53654;54.152;19.432;2023-04-01T02:14:10;99640.33;;;7.78;86.34
66742;BME280;53654;54.152;19.432;2023-04-01T02:16:48;99643.10;;;7.79;86.36
66742;BME280;53654;54.152;19.432;2023-04-01T02:19:20;99643.61;;;7.79;86.07
66742;BME280;53654;54.152;19.432;2023-04-01T02:21:55;99647.63;;;7.77;85.77
66742;BME280;53654;54.152;19.432;2023-04-01T02:24:26;99645.60;;;7.73;85.94
66742;BME280;53654;54.152;19.432;2023-04-01T02:26:55;99646.48;;;7.73;85.91
66742;BME280;53654;54.152;19.432;2023-04-01T02:29:24;99643.20;;;7.72;85.74
66742;BME280;53654;54.152;19.432;2023-04-01T02:31:54;99645.99;;;7.70;85.88
66742;BME280;53654;54.152;19.432;2023-04-01T02:34:24;99646.89;;;7.68;85.92
66742;BME280;53654;54.152;19.432;2023-04-01T02:36:53;99652.48;;;7.66;85.81
66742;BME280;53654;54.152;19.432;2023-04-01T02:39:23;99652.51;;;7.64;85.72
66742;BME280;53654;54.152;19.432;2023-04-01T02:41:53;99653.73;;;7.63;85.96
66742;BME280;53654;54.152;19.432;2023-04-01T02:44:21;99655.27;;;7.66;85.89
66742;BME280;53654;54.152;19.432;2023-04-01T02:46:49;99656.46;;;7.66;85.83
66742;BME280;53654;54.152;19.432;2023-04-01T02:49:18;99654.56;;;7.66;85.63
66742;BME280;53654;54.152;19.432;2023-04-01T02:51:46;99658.21;;;7.66;85.63
66742;BME280;53654;54.152;19.432;2023-04-01T02:54:14;99657.68;;;7.66;85.67
66742;BME280;53654;54.152;19.432;2023-04-01T02:56:43;99659.61;;;7.65;85.77
66742;BME280;53654;54.152;19.432;2023-04-01T02:59:11;99662.58;;;7.63;85.72
66742;BME280;53654;54.152;19.432;2023-04-01T03:01:39;99659.11;;;7.63;85.97
66742;BME280;53654;54.152;19.432;2023-04-01T03:04:08;99660.30;;;7.65;86.03
66742;BME280;53654;54.152;19.432;2023-04-01T03:06:36;99663.03;;;7.68;85.96
66742;BME280;53654;54.152;19.432;2023-04-01T03:09:04;99663.36;;;7.70;85.83
66742;BME280;53654;54.152;19.432;2023-04-01T03:11:32;99666.98;;;7.71;85.73
66742;BME280;53654;54.152;19.432;2023-04-01T03:14:01;99668.00;;;7.73;85.58
66742;BME280;53654;54.152;19.432;2023-04-01T03:16:29;99670.59;;;7.74;85.51
66742;BME280;53654;54.152;19.432;2023-04-01T03:18:57;99666.26;;;7.73;85.55
66742;BME280;53654;54.152;19.432;2023-04-01T03:21:27;99668.87;;;7.73;85.65
66742;BME280;53654;54.152;19.432;2023-04-01T03:23:56;99674.95;;;7.73;85.42
66742;BME280;53654;54.152;19.432;2023-04-01T03:26:24;99677.06;;;7.70;85.54
66742;BME280;53654;54.152;19.432;2023-04-01T03:28:54;99682.63;;;7.71;85.59
66742;BME280;53654;54.152;19.432;2023-04-01T03:31:23;99684.39;;;7.68;85.60
66742;BME280;53654;54.152;19.432;2023-04-01T03:33:53;99684.41;;;7.67;85.57
66742;BME280;53654;54.152;19.432;2023-04-01T03:36:22;99684.04;;;7.68;85.66
66742;BME280;53654;54.152;19.432;2023-04-01T03:38:50;99682.15;;;7.67;85.63
66742;BME280;53654;54.152;19.432;2023-04-01T03:41:21;99685.99;;;7.65;85.55
66742;BME280;53654;54.152;19.432;2023-04-01T03:43:49;99687.55;;;7.65;85.67
66742;BME280;53654;54.152;19.432;2023-04-01T03:46:18;99689.63;;;7.66;85.55
66742;BME280;53654;54.152;19.432;2023-04-01T03:48:47;99691.20;;;7.64;85.48
66742;BME280;53654;54.152;19.432;2023-04-01T03:51:15;99694.52;;;7.62;85.51
66742;BME280;53654;54.152;19.432;2023-04-01T03:53:43;99699.93;;;7.61;85.43
66742;BME280;53654;54.152;19.432;2023-04-01T03:56:12;99698.36;;;7.62;85.40
66742;BME280;53654;54.152;19.432;2023-04-01T03:58:41;99697.52;;;7.59;85.33
66742;BME280;53654;54.152;19.432;2023-04-01T04:01:20;99700.14;;;7.59;85.42
66742;BME280;53654;54.152;19.432;2023-04-01T04:03:50;99702.80;;;7.54;85.52
66742;BME280;53654;54.152;19.432;2023-04-01T04:06:19;99705.98;;;7.49;85.60
66742;BME280;53654;54.152;19.432;2023-04-01T04:08:47;99705.19;;;7.43;85.88
66742;BME280;53654;54.152;19.432;2023-04-01T04:11:16;99707.85;;;7.38;86.13
66742;BME280;53654;54.152;19.432;2023-04-01T04:13:45;99709.10;;;7.36;86.31
66742;BME280;53654;54.152;19.432;2023-04-01T04:16:14;99713.30;;;7.32;86.33
66742;BME280;53654;54.152;19.432;2023-04-01T04:18:46;99715.21;;;7.31;86.50
66742;BME280;53654;54.152;19.432;2023-04-01T04:21:15;99722.00;;;7.30;86.62
66742;BME280;53654;54.152;19.432;2023-04-01T04:23:43;99726.38;;;7.27;86.58
66742;BME280;53654;54.152;19.432;2023-04-01T04:26:14;99732.62;;;7.27;86.77
66742;BME280;53654;54.152;19.432;2023-04-01T04:28:44;99737.29;;;7.28;86.81
66742;BME280;53654;54.152;19.432;2023-04-01T04:31:18;99740.47;;;7.23;86.64
66742;BME280;53654;54.152;19.432;2023-04-01T04:33:47;99741.22;;;7.17;86.65
66742;BME280;53654;54.152;19.432;2023-04-01T04:36:16;99740.20;;;7.15;86.98
66742;BME280;53654;54.152;19.432;2023-04-01T04:38:45;99747.33;;;7.15;87.05
66742;BME280;53654;54.152;19.432;2023-04-01T04:41:15;99748.70;;;7.15;87.09
66742;BME280;53654;54.152;19.432;2023-04-01T04:43:51;99752.86;;;7.16;87.11
66742;BME280;53654;54.152;19.432;2023-04-01T04:46:20;99751.50;;;7.13;86.98
66742;BME280;53654;54.152;19.432;2023-04-01T04:48:49;99754.80;;;7.14;87.05
66742;BME280;53654;54.152;19.432;2023-04-01T04:51:19;99757.22;;;7.14;87.21
66742;BME280;53654;54.152;19.432;2023-04-01T04:53:48;99749.55;;;7.17;87.14
66742;BME280;53654;54.152;19.432;2023-04-01T04:56:21;99753.38;;;7.17;87.12
66742;BME280;53654;54.152;19.432;2023-04-01T04:58:58;99754.20;;;7.20;87.08
66742;BME280;53654;54.152;19.432;2023-04-01T05:01:30;99755.08;;;7.19;86.96
66742;BME280;53654;54.152;19.432;2023-04-01T05:03:59;99753.50;;;7.21;86.90
66742;BME280;53654;54.152;19.432;2023-04-01T05:06:27;99758.17;;;7.23;86.97
66742;BME280;53654;54.152;19.432;2023-04-01T05:08:57;99760.23;;;7.25;86.78
66742;BME280;53654;54.152;19.432;2023-04-01T05:11:25;99760.42;;;7.24;86.60
66742;BME280;53654;54.152;19.432;2023-04-01T05:13:55;99757.66;;;7.21;86.55
66742;BME280;53654;54.152;19.432;2023-04-01T05:16:24;99762.01;;;7.21;86.53
66742;BME280;53654;54.152;19.432;2023-04-01T05:18:52;99761.49;;;7.20;86.39
66742;BME280;53654;54.152;19.432;2023-04-01T05:21:20;99763.75;;;7.20;86.35
66742;BME280;53654;54.152;19.432;2023-04-01T05:23:48;99763.56;;;7.20;86.28
66742;BME280;53654;54.152;19.432;2023-04-01T05:26:16;99767.36;;;7.23;85.90
66742;BME280;53654;54.152;19.432;2023-04-01T05:28:45;99770.48;;;7.22;85.63
66742;BME280;53654;54.152;19.432;2023-04-01T05:31:13;99770.34;;;7.20;85.44
66742;BME280;53654;54.152;19.432;2023-04-01T05:33:43;99777.64;;;7.19;85.59
66742;BME280;53654;54.152;19.432;2023-04-01T05:36:16;99779.20;;;7.18;85.54
66742;BME280;53654;54.152;19.432;2023-04-01T05:38:44;99782.70;;;7.15;85.49
66742;BME280;53654;54.152;19.432;2023-04-01T05:41:14;99786.71;;;7.13;85.38
66742;BME280;53654;54.152;19.432;2023-04-01T05:43:45;99785.89;;;7.09;85.30
66742;BME280;53654;54.152;19.432;2023-04-01T05:46:31;99786.44;;;7.06;85.49
66742;BME280;53654;54.152;19.432;2023-04-01T05:49:12;99788.67;;;7.08;85.82
66742;BME280;53654;54.152;19.432;2023-04-01T05:51:40;99788.45;;;7.13;85.68
66742;BME280;53654;54.152;19.432;2023-04-01T05:54:08;99785.81;;;7.17;85.57
66742;BME280;53654;54.152;19.432;2023-04-01T05:56:36;99784.21;;;7.20;85.38
66742;BME280;53654;54.152;19.432;2023-04-01T05:59:05;99792.34;;;7.23;85.46
66742;BME280;53654;54.152;19.432;2023-04-01T06:01:33;99793.02;;;7.25;85.37
66742;BME280;53654;54.152;19.432;2023-04-01T06:04:01;99794.45;;;7.19;84.87
66742;BME280;53654;54.152;19.432;2023-04-01T06:06:31;99797.85;;;7.09;84.87
66742;BME280;53654;54.152;19.432;2023-04-01T06:09:38;99799.96;;;7.06;85.18
66742;BME280;53654;54.152;19.432;2023-04-01T06:18:34;99807.92;;;6.88;85.57
66742;BME280;53654;54.152;19.432;2023-04-01T06:21:42;99812.84;;;6.81;85.44
66742;BME280;53654;54.152;19.432;2023-04-01T06:33:13;99814.35;;;6.87;85.87
66742;BME280;53654;54.152;19.432;2023-04-01T06:46:48;99831.41;;;6.99;85.68
66742;BME280;53654;54.152;19.432;2023-04-01T06:53:05;99833.12;;;7.02;85.90
66742;BME280;53654;54.152;19.432;2023-04-01T06:56:02;99832.94;;;7.02;85.85
66742;BME280;53654;54.152;19.432;2023-04-01T06:59:05;99835.52;;;7.05;85.94
66742;BME280;53654;54.152;19.432;2023-04-01T07:01:46;99838.63;;;7.06;85.91
66742;BME280;53654;54.152;19.432;2023-04-01T07:04:35;99844.00;;;7.07;85.80
66742;BME280;53654;54.152;19.432;2023-04-01T07:09:50;99844.69;;;7.08;85.87
66742;BME280;53654;54.152;19.432;2023-04-01T07:15:26;99844.13;;;7.12;85.92
66742;BME280;53654;54.152;19.432;2023-04-01T07:18:03;99842.53;;;7.16;86.07
66742;BME280;53654;54.152;19.432;2023-04-01T07:20:36;99849.75;;;7.23;85.99
66742;BME280;53654;54.152;19.432;2023-04-01T07:23:12;99846.05;;;7.30;85.95
66742;BME280;53654;54.152;19.432;2023-04-01T07:26:23;99846.69;;;7.34;85.70
66742;BME280;53654;54.152;19.432;2023-04-01T07:29:14;99852.60;;;7.34;85.21
66742;BME280;53654;54.152;19.432;2023-04-01T07:43:00;99863.64;;;7.41;84.80
66742;BME280;53654;54.152;19.432;2023-04-01T07:46:29;99864.70;;;7.39;84.45
66742;BME280;53654;54.152;19.432;2023-04-01T08:04:51;99885.53;;;7.37;83.98
66742;BME280;53654;54.152;19.432;2023-04-01T08:11:41;99883.83;;;7.14;84.54
66742;BME280;53654;54.152;19.432;2023-04-01T08:14:48;99890.29;;;7.08;85.00
66742;BME280;53654;54.152;19.432;2023-04-01T08:20:50;99894.46;;;7.08;85.43
66742;BME280;53654;54.152;19.432;2023-04-01T08:23:36;99898.61;;;7.09;85.47
66742;BME280;53654;54.152;19.432;2023-04-01T08:28:51;99904.40;;;7.23;85.42
66742;BME280;53654;54.152;19.432;2023-04-01T08:31:37;99908.14;;;7.32;85.39
66742;BME280;53654;54.152;19.432;2023-04-01T08:34:15;99906.84;;;7.42;85.38
66742;BME280;53654;54.152;19.432;2023-04-01T08:36:51;99911.77;;;7.54;85.34
66742;BME280;53654;54.152;19.432;2023-04-01T08:39:31;99914.62;;;7.64;84.60
66742;BME280;53654;54.152;19.432;2023-04-01T08:48:44;99916.54;;;7.62;84.34
66742;BME280;53654;54.152;19.432;2023-04-01T08:51:36;99918.42;;;7.65;84.17
66742;BME280;53654;54.152;19.432;2023-04-01T09:03:20;99925.82;;;7.72;83.98
66742;BME280;53654;54.152;19.432;2023-04-01T09:06:19;99925.58;;;7.78;83.95
66742;BME280;53654;54.152;19.432;2023-04-01T09:11:53;99929.86;;;8.00;83.58
66742;BME280;53654;54.152;19.432;2023-04-01T09:23:29;99935.46;;;8.11;81.82
66742;BME280;53654;54.152;19.432;2023-04-01T09:26:16;99942.04;;;8.14;81.17
66742;BME280;53654;54.152;19.432;2023-04-01T09:32:11;99952.21;;;8.21;80.69
66742;BME280;53654;54.152;19.432;2023-04-01T09:37:58;99958.13;;;8.04;80.91
66742;BME280;53654;54.152;19.432;2023-04-01T10:01:01;99988.13;;;7.54;83.88
66742;BME280;53654;54.152;19.432;2023-04-01T10:09:28;100000.16;;;7.46;84.19
66742;BME280;53654;54.152;19.432;2023-04-01T10:12:17;100001.43;;;7.39;84.24
66742;BME280;53654;54.152;19.432;2023-04-01T10:28:40;100027.12;;;7.12;84.84
66742;BME280;53654;54.152;19.432;2023-04-01T10:32:11;100033.16;;;7.15;85.33
66742;BME280;53654;54.152;19.432;2023-04-01T10:49:35;100049.72;;;7.01;84.69
66742;BME280;53654;54.152;19.432;2023-04-01T10:58:41;100059.84;;;6.88;85.02
66742;BME280;53654;54.152;19.432;2023-04-01T11:08:38;100068.02;;;6.80;85.51
66742;BME280;53654;54.152;19.432;2023-04-01T11:25:45;100082.54;;;6.93;84.80
66742;BME280;53654;54.152;19.432;2023-04-01T11:31:35;100090.16;;;6.93;84.23
66742;BME280;53654;54.152;19.432;2023-04-01T11:37:17;100087.91;;;6.92;83.92
66742;BME280;53654;54.152;19.432;2023-04-01T11:40:43;100094.01;;;6.85;83.92
66742;BME280;53654;54.152;19.432;2023-04-01T11:43:34;100096.11;;;6.82;83.91
66742;BME280;53654;54.152;19.432;2023-04-01T12:06:36;100109.70;;;6.55;84.77
66742;BME280;53654;54.152;19.432;2023-04-01T12:09:21;100112.30;;;6.56;84.46
66742;BME280;53654;54.152;19.432;2023-04-01T12:39:28;100141.96;;;6.24;85.16
66742;BME280;53654;54.152;19.432;2023-04-01T12:47:41;100158.42;;;6.18;85.93
66742;BME280;53654;54.152;19.432;2023-04-01T12:56:12;100168.29;;;6.18;85.87
66742;BME280;53654;54.152;19.432;2023-04-01T13:04:11;100186.48;;;6.23;85.80
66742;BME280;53654;54.152;19.432;2023-04-01T13:10:01;100188.20;;;6.11;85.45
66742;BME280;53654;54.152;19.432;2023-04-01T13:30:02;100222.21;;;5.73;85.96
66742;BME280;53654;54.152;19.432;2023-04-01T13:41:27;100237.09;;;5.69;85.76
66742;BME280;53654;54.152;19.432;2023-04-01T14:18:45;100274.15;;;5.36;83.90
66742;BME280;53654;54.152;19.432;2023-04-01T14:24:21;100270.04;;;5.44;83.55
66742;BME280;53654;54.152;19.432;2023-04-01T14:30:19;100273.17;;;5.49;83.63
66742;BME280;53654;54.152;19.432;2023-04-01T14:33:21;100280.27;;;5.50;83.46
66742;BME280;53654;54.152;19.432;2023-04-01T14:41:39;100287.39;;;5.55;83.00
66742;BME280;53654;54.152;19.432;2023-04-01T14:44:22;100289.45;;;5.53;82.89
66742;BME280;53654;54.152;19.432;2023-04-01T14:47:22;100294.13;;;5.55;82.91
66742;BME280;53654;54.152;19.432;2023-04-01T14:50:11;100296.37;;;5.51;82.68
66742;BME280;53654;54.152;19.432;2023-04-01T14:52:54;100305.01;;;5.49;82.61
66742;BME280;53654;54.152;19.432;2023-04-01T14:55:31;100310.69;;;5.44;82.60
66742;BME280;53654;54.152;19.432;2023-04-01T14:58:11;100319.49;;;5.42;82.88
66742;BME280;53654;54.152;19.432;2023-04-01T15:03:32;100326.07;;;5.40;82.74
66742;BME280;53654;54.152;19.432;2023-04-01T15:11:37;100330.52;;;5.34;82.89
66742;BME280;53654;54.152;19.432;2023-04-01T15:14:20;100341.04;;;5.28;82.71
66742;BME280;53654;54.152;19.432;2023-04-01T15:17:25;100339.41;;;5.20;82.72
66742;BME280;53654;54.152;19.432;2023-04-01T15:28:39;100358.60;;;5.20;83.23
66742;BME280;53654;54.152;19.432;2023-04-01T15:35:03;100369.42;;;5.12;82.72
66742;BME280;53654;54.152;19.432;2023-04-01T15:57:37;100406.42;;;5.11;83.04
66742;BME280;53654;54.152;19.432;2023-04-01T16:03:30;100403.91;;;5.01;83.27
66742;BME280;53654;54.152;19.432;2023-04-01T16:06:30;100408.36;;;4.96;83.30
66742;BME280;53654;54.152;19.432;2023-04-01T16:12:11;100424.03;;;4.90;83.46
66742;BME280;53654;54.152;19.432;2023-04-01T16:15:12;100424.73;;;4.90;83.27
66742;BME280;53654;54.152;19.432;2023-04-01T16:20:51;100435.42;;;4.87;82.90
66742;BME280;53654;54.152;19.432;2023-04-01T16:26:24;100443.25;;;4.92;82.72
66742;BME280;53654;54.152;19.432;2023-04-01T16:31:49;100456.78;;;4.80;82.84
66742;BME280;53654;54.152;19.432;2023-04-01T16:37:13;100468.36;;;4.80;82.94
66742;BME280;53654;54.152;19.432;2023-04-01T16:44:57;100473.30;;;4.90;83.07
66742;BME280;53654;54.152;19.432;2023-04-01T16:47:36;100477.96;;;4.90;82.84
66742;BME280;53654;54.152;19.432;2023-04-01T16:50:30;100481.61;;;4.91;82.69
66742;BME280;53654;54.152;19.432;2023-04-01T16:53:17;100487.29;;;4.89;82.56
66742;BME280;53654;54.152;19.432;2023-04-01T16:55:54;100490.05;;;4.89;82.63
66742;BME280;53654;54.152;19.432;2023-04-01T17:01:40;100495.64;;;4.78;82.34
66742;BME280;53654;54.152;19.432;2023-04-01T17:04:19;100500.42;;;4.73;82.21
66742;BME280;53654;54.152;19.432;2023-04-01T17:07:10;100508.70;;;4.71;82.28
66742;BME280;53654;54.152;19.432;2023-04-01T17:15:07;100531.05;;;4.76;82.42
66742;BME280;53654;54.152;19.432;2023-04-01T17:24:11;100546.53;;;4.70;82.28
66742;BME280;53654;54.152;19.432;2023-04-01T17:26:51;100551.67;;;4.67;82.31
66742;BME280;53654;54.152;19.432;2023-04-01T17:29:35;100559.79;;;4.66;82.32
66742;BME280;53654;54.152;19.432;2023-04-01T17:32:31;100565.16;;;4.68;82.30
66742;BME280;53654;54.152;19.432;2023-04-01T17:37:53;100577.59;;;4.66;81.91
66742;BME280;53654;54.152;19.432;2023-04-01T17:46:08;100581.48;;;4.60;82.45
66742;BME280;53654;54.152;19.432;2023-04-01T17:51:15;100587.33;;;4.58;82.58
66742;BME280;53654;54.152;19.432;2023-04-01T17:56:50;100594.05;;;4.57;82.54
66742;BME280;53654;54.152;19.432;2023-04-01T17:59:38;100598.69;;;4.55;82.38
66742;BME280;53654;54.152;19.432;2023-04-01T18:08:11;100606.27;;;4.54;82.43
66742;BME280;53654;54.152;19.432;2023-04-01T18:19:07;100622.23;;;4.46;82.40
66742;BME280;53654;54.152;19.432;2023-04-01T18:27:24;100631.89;;;4.45;82.56
66742;BME280;53654;54.152;19.432;2023-04-01T18:38:16;100649.65;;;4.55;81.82
66742;BME280;53654;54.152;19.432;2023-04-01T18:52:25;100663.99;;;4.56;81.06
66742;BME280;53654;54.152;19.432;2023-04-01T18:57:49;100668.29;;;4.64;80.98
66742;BME280;53654;54.152;19.432;2023-04-01T19:00:26;100667.20;;;4.61;80.72
66742;BME280;53654;54.152;19.432;2023-04-01T19:03:07;100669.21;;;4.57;80.91
66742;BME280;53654;54.152;19.432;2023-04-01T19:05:40;100676.45;;;4.57;80.80
66742;BME280;53654;54.152;19.432;2023-04-01T19:08:40;100677.69;;;4.58;80.73
66742;BME280;53654;54.152;19.432;2023-04-01T19:11:39;100680.27;;;4.58;80.85
66742;BME280;53654;54.152;19.432;2023-04-01T19:20:17;100691.38;;;4.61;80.91
66742;BME280;53654;54.152;19.432;2023-04-01T19:25:33;100696.48;;;4.56;80.97
66742;BME280;53654;54.152;19.432;2023-04-01T19:37:03;100709.13;;;4.46;81.44
66742;BME280;53654;54.152;19.432;2023-04-01T19:40:04;100714.17;;;4.49;81.79
66742;BME280;53654;54.152;19.432;2023-04-01T19:45:41;100722.76;;;4.45;81.91
66742;BME280;53654;54.152;19.432;2023-04-01T19:50:56;100727.25;;;4.46;81.65
66742;BME280;53654;54.152;19.432;2023-04-01T19:56:07;100738.41;;;4.52;81.79
66742;BME280;53654;54.152;19.432;2023-04-01T19:58:56;100743.92;;;4.52;81.37
66742;BME280;53654;54.152;19.432;2023-04-01T20:01:44;100744.05;;;4.49;81.61
66742;BME280;53654;54.152;19.432;2023-04-01T20:04:26;100747.65;;;4.47;81.84
66742;BME280;53654;54.152;19.432;2023-04-01T20:07:01;100748.85;;;4.46;81.74
66742;BME280;53654;54.152;19.432;2023-04-01T20:15:39;100763.57;;;4.38;81.79
66742;BME280;53654;54.152;19.432;2023-04-01T20:18:16;100768.75;;;4.38;82.05
66742;BME280;53654;54.152;19.432;2023-04-01T20:20:57;100767.98;;;4.33;81.88
66742;BME280;53654;54.152;19.432;2023-04-01T20:26:12;100773.03;;;4.36;82.09
66742;BME280;53654;54.152;19.432;2023-04-01T20:34:02;100782.77;;;4.50;81.67
66742;BME280;53654;54.152;19.432;2023-04-01T20:44:42;100792.10;;;4.50;82.34
66742;BME280;53654;54.152;19.432;2023-04-01T20:52:49;100805.75;;;4.50;81.93
66742;BME280;53654;54.152;19.432;2023-04-01T20:55:29;100811.21;;;4.46;81.78
66742;BME280;53654;54.152;19.432;2023-04-01T21:01:20;100816.80;;;4.40;80.96
66742;BME280;53654;54.152;19.432;2023-04-01T21:15:21;100838.33;;;4.18;80.94
66742;BME280;53654;54.152;19.432;2023-04-01T21:18:02;100841.16;;;4.22;80.86
66742;BME280;53654;54.152;19.432;2023-04-01T21:26:21;100842.09;;;4.26;80.77
66742;BME280;53654;54.152;19.432;2023-04-01T21:29:08;100846.02;;;4.23;80.55
66742;BME280;53654;54.152;19.432;2023-04-01T21:31:50;100844.42;;;4.21;80.59
66742;BME280;53654;54.152;19.432;2023-04-01T21:34:48;100846.55;;;4.23;80.60
66742;BME280;53654;54.152;19.432;2023-04-01T22:05:28;100868.88;;;3.99;80.23
66742;BME280;53654;54.152;19.432;2023-04-01T22:11:02;100871.73;;;3.96;80.74
66742;BME280;53654;54.152;19.432;2023-04-01T22:13:41;100875.60;;;3.99;80.43
66742;BME280;53654;54.152;19.432;2023-04-01T22:19:19;100885.67;;;4.02;80.61
66742;BME280;53654;54.152;19.432;2023-04-01T22:22:02;100885.51;;;4.02;80.39
66742;BME280;53654;54.152;19.432;2023-04-01T22:24:48;100891.76;;;4.04;80.30
66742;BME280;53654;54.152;19.432;2023-04-01T22:32:48;100901.33;;;4.07;79.99
66742;BME280;53654;54.152;19.432;2023-04-01T22:35:41;100904.25;;;4.07;80.08
66742;BME280;53654;54.152;19.432;2023-04-01T22:41:14;100911.17;;;4.08;79.92
66742;BME280;53654;54.152;19.432;2023-04-01T22:43:47;100914.24;;;4.06;79.57
66742;BME280;53654;54.152;19.432;2023-04-01T22:52:01;100912.06;;;3.93;79.86
66742;BME280;53654;54.152;19.432;2023-04-01T22:54:44;100916.91;;;3.94;80.00
66742;BME280;53654;54.152;19.432;2023-04-01T22:57:46;100923.36;;;3.96;80.15
66742;BME280;53654;54.152;19.432;2023-04-01T23:03:09;100923.42;;;4.00;79.72
66742;BME280;53654;54.152;19.432;2023-04-01T23:05:46;100930.05;;;3.95;79.45
66742;BME280;53654;54.152;19.432;2023-04-01T23:13:50;100927.20;;;3.90;79.94
66742;BME280;53654;54.152;19.432;2023-04-01T23:16:26;100928.96;;;3.92;79.78
66742;BME280;53654;54.152;19.432;2023-04-01T23:24:46;100934.89;;;3.95;79.63
66742;BME280;53654;54.152;19.432;2023-04-01T23:27:21;100937.50;;;3.96;79.36
66742;BME280;53654;54.152;19.432;2023-04-01T23:29:52;100940.50;;;3.99;79.39
66742;BME280;53654;54.152;19.432;2023-04-01T23:32:23;100938.74;;;4.06;79.16
66742;BME280;53654;54.152;19.432;2023-04-01T23:34:58;100942.64;;;4.02;79.05
66742;BME280;53654;54.152;19.432;2023-04-01T23:37:27;100947.83;;;4.02;78.94
66742;BME280;53654;54.152;19.432;2023-04-01T23:39:57;100947.88;;;4.05;78.89
66742;BME280;53654;54.152;19.432;2023-04-01T23:42:32;100955.34;;;4.07;78.83
66742;BME280;53654;54.152;19.432;2023-04-01T23:45:03;100960.29;;;4.12;78.49
66742;BME280;53654;54.152;19.432;2023-04-01T23:47:35;100964.54;;;4.17;78.32
66742;BME280;53654;54.152;19.432;2023-04-01T23:50:20;100965.42;;;4.18;77.87
66742;BME280;53654;54.152;19.432;2023-04-01T23:53:11;100971.46;;;4.17;77.91
66742;BME280;53654;54.152;19.432;2023-04-01T23:55:41;100966.73;;;4.15;77.74
66742;BME280;53654;54.152;19.432;2023-04-01T23:58:27;100972.74;;;4.13;77.71
